Destrehan, Louisiana
Current Conditions -  °F | °C
As of 5:53 PM on Sunday 23 Nov 2014 (Local Time) from KMSY Reporting Station
Few Clouds Few Clouds  
Wind Chill: 21°   Ceiling: Unl
Heat Index: 21°   Visibility: 10mi
Dew Point: 16°   Wind: 9mph
Humidity: 71%   Direction: 200°SSW
Pressure: 29.68"   Gusts: NA
Location:  29.95°N, 90.39°W
Report Text: KMSY 232353Z 20008KT 10SM FEW045 21/16 A2968 RMK AO2 SLP052 T02110156 10244 20211 53011
Loading
Personal Weather Stations






























Interactive Weather Map New forecast layout! Learn more

10-Day Weather Forecast

Advertisements
Track Severe Weather on mobile